Time;durP1;ratioP1;P1;durP2;ratioP2;P2;SDS_P1;SDS_P2;PMS_P1;PMS_P2;Temp;Humidity;BMP_temperature;BMP_pressure;BME280_temperature;BME280_humidity;BME280_pressure;Samples;Min_cycle;Max_cycle;Signal;HPM_P1;HPM_P2
2022/01/06 00:00:53;;;;;;;38.88;25.00;;;;;;;4.00;100.00;99783.52;1681780;83;21162;-86
2022/01/06 00:03:20;;;;;;;36.20;26.00;;;;;;;4.00;100.00;99783.99;1709471;83;21118;-86
2022/01/06 00:05:49;;;;;;;40.25;26.68;;;;;;;3.96;100.00;99783.35;1709731;83;21114;-87
2022/01/06 00:08:18;;;;;;;40.80;26.50;;;;;;;3.95;100.00;99786.84;1686082;83;21055;-86
2022/01/06 00:10:48;;;;;;;42.37;26.57;;;;;;;3.94;100.00;99787.77;1709566;83;21553;-86
2022/01/06 00:13:21;;;;;;;35.25;24.15;;;;;;;3.92;100.00;99780.58;1709965;83;21165;-87
2022/01/06 00:23:51;;;;;;;39.05;25.88;;;;;;;3.92;100.00;99774.14;1710234;83;21066;-87
2022/01/06 00:26:20;;;;;;;41.35;28.30;;;;;;;3.89;100.00;99766.14;1709745;83;22060;-86
2022/01/06 00:28:47;;;;;;;44.42;27.75;;;;;;;3.89;100.00;99765.30;1710568;83;21087;-86
2022/01/06 00:31:14;;;;;;;41.90;27.13;;;;;;;3.88;100.00;99763.67;1710112;83;21103;-88
2022/01/06 00:33:41;;;;;;;40.25;25.97;;;;;;;3.90;100.00;99760.52;1709710;83;21528;-88
2022/01/06 00:36:09;;;;;;;39.50;27.30;;;;;;;3.90;100.00;99760.52;1709035;83;21015;-86
2022/01/06 00:38:36;;;;;;;46.90;30.43;;;;;;;3.91;100.00;99755.73;1709527;82;22080;-86
2022/01/06 00:41:03;;;;;;;44.27;27.48;;;;;;;3.90;100.00;99754.92;1709059;83;21003;-88
2022/01/06 00:43:31;;;;;;;48.87;29.95;;;;;;;3.88;100.00;99752.89;1709302;83;21075;-88
2022/01/06 00:45:58;;;;;;;47.13;31.02;;;;;;;3.86;100.00;99747.47;1709490;83;21087;-87
2022/01/06 00:48:25;;;;;;;41.20;27.70;;;;;;;3.84;100.00;99737.27;1709663;83;21154;-88
2022/01/06 00:50:53;;;;;;;42.43;27.93;;;;;;;3.85;100.00;99748.39;1709462;83;21162;-88
2022/01/06 00:53:20;;;;;;;45.00;29.42;;;;;;;3.84;100.00;99744.16;1709694;83;21055;-88
2022/01/06 00:55:47;;;;;;;43.10;27.60;;;;;;;3.83;100.00;99747.65;1686088;83;21576;-88
2022/01/06 00:58:15;;;;;;;37.45;24.18;;;;;;;3.82;100.00;99749.85;1709857;83;21079;-87
2022/01/06 01:00:42;;;;;;;37.80;25.02;;;;;;;3.82;100.00;99757.58;1709587;83;21051;-87
2022/01/06 01:03:14;;;;;;;41.98;25.82;;;;;;;3.83;100.00;99758.80;1709630;83;21150;-87
2022/01/06 01:05:45;;;;;;;38.98;24.15;;;;;;;3.81;100.00;99758.50;1708446;83;21118;-87
2022/01/06 01:08:13;;;;;;;34.10;22.27;;;;;;;3.83;100.00;99773.41;1685864;83;21568;-87
2022/01/06 01:10:46;;;;;;;31.87;21.27;;;;;;;3.83;100.00;99762.66;1686042;83;21046;-88
2022/01/06 01:13:14;;;;;;;34.70;23.02;;;;;;;3.83;100.00;99766.52;1709588;83;21003;-87
2022/01/06 01:15:54;;;;;;;42.23;26.50;;;;;;;3.82;100.00;99756.30;1709338;83;21172;-88
2022/01/06 01:18:21;;;;;;;42.43;25.37;;;;;;;3.81;100.00;99753.34;1706255;83;21075;-88
2022/01/06 01:20:53;;;;;;;45.25;26.87;;;;;;;3.81;100.00;99761.07;1709447;83;21122;-87
2022/01/06 01:23:21;;;;;;;53.35;31.00;;;;;;;3.79;100.00;99756.87;1686151;83;20991;-88
2022/01/06 01:25:48;;;;;;;50.03;32.33;;;;;;;3.77;100.00;99757.41;1708800;83;21030;-86
2022/01/06 01:28:17;;;;;;;45.63;29.30;;;;;;;3.77;100.00;99766.87;1709919;83;21411;-86
2022/01/06 01:31:49;;;;;;;41.13;26.07;;;;;;;3.75;100.00;99757.14;1709793;83;21106;-86
2022/01/06 01:33:24;;;;;;;35.73;25.27;;;;;;;3.73;100.00;99756.40;1680733;83;21082;-87
2022/01/06 01:35:51;;;;;;;37.20;23.57;;;;;;;3.70;100.00;99752.27;1709450;83;21114;-87
2022/01/06 01:38:19;;;;;;;36.95;24.25;;;;;;;3.71;100.00;99746.64;1709404;83;21859;-86
2022/01/06 01:40:46;;;;;;;38.90;23.75;;;;;;;3.68;100.00;99745.09;1686138;83;21058;-87
2022/01/06 01:43:13;;;;;;;37.03;22.90;;;;;;;3.66;100.00;99748.20;1686027;84;21095;-87
2022/01/06 01:45:46;;;;;;;36.75;23.57;;;;;;;3.64;100.00;99739.77;1685789;83;21162;-87
2022/01/06 01:48:18;;;;;;;37.15;22.95;;;;;;;3.61;100.00;99735.61;1704588;83;21091;-87
2022/01/06 01:50:38;;;;;;;33.38;21.65;;;;;;;3.62;100.00;99741.60;1704825;83;21059;-87
2022/01/06 01:53:05;;;;;;;27.77;19.17;;;;;;;3.60;100.00;99740.86;1707881;83;21853;-87
2022/01/06 01:55:34;;;;;;;30.05;18.62;;;;;;;3.57;100.00;99739.74;1668089;86;21527;-86
2022/01/06 01:58:02;;;;;;;29.52;19.87;;;;;;;3.56;100.00;99731.68;1703555;83;21513;-86
2022/01/06 02:00:31;;;;;;;27.37;18.37;;;;;;;3.54;100.00;99728.36;1702995;84;21020;-87
2022/01/06 02:02:58;;;;;;;29.98;19.00;;;;;;;3.52;100.00;99722.47;1702764;83;21099;-88
2022/01/06 02:05:27;;;;;;;26.80;18.57;;;;;;;3.52;100.00;99718.61;1658576;83;21151;-86
2022/01/06 02:08:00;;;;;;;30.20;19.23;;;;;;;3.52;100.00;99721.18;1679392;84;21059;-87
2022/01/06 02:10:28;;;;;;;25.85;18.12;;;;;;;3.52;100.00;99713.46;1703144;83;21076;-85
2022/01/06 02:12:58;;;;;;;30.77;19.35;;;;;;;3.53;100.00;99717.69;1702825;84;21114;-88
2022/01/06 02:15:25;;;;;;;28.62;20.52;;;;;;;3.53;100.00;99711.25;1703324;83;21094;-88
2022/01/06 02:17:54;;;;;;;29.70;19.42;;;;;;;3.51;100.00;99704.92;1703094;84;21156;-87
2022/01/06 02:20:23;;;;;;;28.80;20.00;;;;;;;3.51;100.00;99702.79;1703204;83;21023;-87
2022/01/06 02:22:52;;;;;;;27.07;18.73;;;;;;;3.48;100.00;99708.48;1702890;83;21119;-89
2022/01/06 02:25:23;;;;;;;30.95;20.00;;;;;;;3.46;100.00;99709.06;1703202;83;21123;-90
2022/01/06 02:27:53;;;;;;;30.37;20.90;;;;;;;3.48;100.00;99703.81;1681773;84;21019;-89
2022/01/06 02:30:23;;;;;;;29.32;19.55;;;;;;;3.50;100.00;99703.27;1679826;83;21845;-89
2022/01/06 02:32:53;;;;;;;28.27;18.80;;;;;;;3.52;100.00;99709.59;1702996;83;21265;-89
2022/01/06 02:35:23;;;;;;;31.77;20.68;;;;;;;3.53;100.00;99716.41;1703254;83;21032;-89
2022/01/06 02:37:50;;;;;;;29.05;18.75;;;;;;;3.53;100.00;99718.98;1702360;83;21536;-90
2022/01/06 02:40:21;;;;;;;29.42;20.27;;;;;;;3.52;100.00;99719.45;1703793;83;20954;-90
2022/01/06 02:42:57;;;;;;;30.05;20.17;;;;;;;3.52;100.00;99714.30;1705527;83;21163;-90
2022/01/06 02:45:29;;;;;;;30.72;21.27;;;;;;;3.52;100.00;99715.59;1684128;83;21761;-90
2022/01/06 02:48:08;;;;;;;28.30;19.45;;;;;;;3.52;100.00;99716.03;1709011;83;21235;-90
2022/01/06 02:50:38;;;;;;;30.95;21.37;;;;;;;3.51;100.00;99711.36;1708919;83;21030;-91
2022/01/06 02:53:08;;;;;;;33.83;22.35;;;;;;;3.48;100.00;99720.06;1709114;82;21634;-89
2022/01/06 02:55:42;;;;;;;28.73;19.80;;;;;;;3.47;100.00;99717.59;1708826;83;21150;-90
2022/01/06 02:58:10;;;;;;;33.67;21.50;;;;;;;3.44;100.00;99712.17;1706928;83;21137;-90
2022/01/06 03:00:38;;;;;;;33.98;22.35;;;;;;;3.43;100.00;99716.95;1684198;83;21098;-89
2022/01/06 03:03:05;;;;;;;30.90;21.05;;;;;;;3.42;100.00;99717.05;1684579;83;21432;-90
2022/01/06 03:05:32;;;;;;;34.23;22.58;;;;;;;3.41;100.00;99707.67;1709056;83;21392;-89
2022/01/06 03:07:59;;;;;;;32.63;21.50;;;;;;;3.41;100.00;99710.25;1684659;83;21607;-89
2022/01/06 03:10:27;;;;;;;32.55;21.48;;;;;;;3.39;100.00;99712.92;1710352;83;21049;-90
2022/01/06 03:12:56;;;;;;;31.48;22.02;;;;;;;3.37;100.00;99712.17;1685937;83;22278;-90
2022/01/06 03:15:24;;;;;;;34.60;21.42;;;;;;;3.38;100.00;99715.56;1709429;83;21045;-88
2022/01/06 03:17:58;;;;;;;31.80;21.55;;;;;;;3.39;100.00;99714.65;1685423;83;21038;-90
2022/01/06 03:20:27;;;;;;;30.82;20.90;;;;;;;3.39;100.00;99711.63;1684390;83;21159;-88
2022/01/06 03:22:55;;;;;;;32.17;21.17;;;;;;;3.40;100.00;99709.88;1709762;83;21034;-90
2022/01/06 03:25:24;;;;;;;32.48;21.15;;;;;;;3.39;100.00;99716.78;1668235;83;21045;-91
2022/01/06 03:27:51;;;;;;;28.67;20.62;;;;;;;3.41;100.00;99722.64;1709579;83;21555;-90
2022/01/06 03:30:22;;;;;;;34.78;22.87;;;;;;;3.42;100.00;99715.29;1668231;83;21615;-90
2022/01/06 03:32:51;;;;;;;30.90;21.05;;;;;;;3.41;100.00;99712.82;1686408;83;21102;-90
2022/01/06 03:35:22;;;;;;;30.00;21.45;;;;;;;3.42;100.00;99705.47;1684414;83;21011;-90
2022/01/06 03:37:50;;;;;;;31.33;21.87;;;;;;;3.42;100.00;99717.87;1706533;83;21078;-90
2022/01/06 03:40:17;;;;;;;36.88;24.60;;;;;;;3.42;100.00;99710.62;1684287;83;21081;-91
2022/01/06 03:42:45;;;;;;;35.05;24.18;;;;;;;3.42;100.00;99716.58;1686902;83;21061;-91
2022/01/06 03:45:16;;;;;;;31.55;23.00;;;;;;;3.42;100.00;99714.48;1708890;83;21669;-88
2022/01/06 03:47:45;;;;;;;40.38;25.77;;;;;;;3.41;100.00;99710.25;1709155;83;21062;-87
2022/01/06 03:50:15;;;;;;;32.75;23.15;;;;;;;3.46;100.00;99714.20;1707599;83;21355;-89
2022/01/06 03:52:43;;;;;;;37.30;24.35;;;;;;;3.47;100.00;99721.02;1709333;83;21069;-90
2022/01/06 03:55:15;;;;;;;33.28;23.18;;;;;;;3.49;100.00;99720.91;1687195;83;21010;-89
2022/01/06 03:57:43;;;;;;;34.70;24.35;;;;;;;3.53;100.00;99711.25;1706247;83;21229;-89
2022/01/06 04:00:14;;;;;;;34.05;23.65;;;;;;;3.56;100.00;99707.22;1708776;83;21057;-90
2022/01/06 04:02:43;;;;;;;36.60;23.57;;;;;;;3.58;100.00;99715.22;1685433;84;21582;-89
2022/01/06 04:05:11;;;;;;;36.50;24.18;;;;;;;3.60;100.00;99718.98;1708906;83;21110;-89
2022/01/06 04:07:40;;;;;;;29.70;22.15;;;;;;;3.61;100.00;99712.44;1709386;83;22060;-89
2022/01/06 04:10:09;;;;;;;37.78;23.50;;;;;;;3.62;100.00;99710.70;1709340;83;21969;-88
2022/01/06 04:12:39;;;;;;;32.15;23.05;;;;;;;3.63;100.00;99703.35;1685938;84;21031;-89
2022/01/06 04:15:12;;;;;;;36.45;23.67;;;;;;;3.62;100.00;99712.81;1686566;83;21090;-89
2022/01/06 04:17:41;;;;;;;33.78;23.35;;;;;;;3.61;100.00;99705.19;1704206;82;21065;-90
2022/01/06 04:20:11;;;;;;;32.17;23.35;;;;;;;3.62;100.00;99702.51;1687443;83;21045;-91
2022/01/06 04:22:39;;;;;;;36.00;24.52;;;;;;;3.65;100.00;99700.67;1687518;85;21156;-90
2022/01/06 04:25:08;;;;;;;33.53;23.55;;;;;;;3.67;100.00;99704.80;1687264;85;21504;-91
2022/01/06 04:27:36;;;;;;;32.33;23.98;;;;;;;3.69;100.00;99705.55;1687484;83;21690;-89
2022/01/06 04:30:05;;;;;;;34.05;23.98;;;;;;;3.68;100.00;99693.59;1687326;83;21414;-89
2022/01/06 04:32:35;;;;;;;31.48;23.70;;;;;;;3.71;100.00;99699.85;1687689;84;21082;-90
2022/01/06 04:35:05;;;;;;;33.42;23.67;;;;;;;3.70;100.00;99704.63;1687275;83;21853;-89
2022/01/06 04:37:32;;;;;;;33.50;23.83;;;;;;;3.71;100.00;99705.00;1687067;84;21085;-90
2022/01/06 04:40:00;;;;;;;33.67;24.12;;;;;;;3.72;100.00;99716.96;1697563;83;21914;-91
2022/01/06 04:42:27;;;;;;;33.10;23.65;;;;;;;3.73;100.00;99723.73;1703705;83;21081;-89
2022/01/06 04:44:54;;;;;;;31.30;21.80;;;;;;;3.75;100.00;99725.77;1705168;83;21593;-89
2022/01/06 04:47:21;;;;;;;34.98;23.83;;;;;;;3.79;100.00;99740.13;1705949;82;21163;-90
2022/01/06 04:49:48;;;;;;;33.63;24.07;;;;;;;3.84;100.00;99740.30;1708522;83;21614;-91
2022/01/06 04:52:16;;;;;;;36.25;25.35;;;;;;;3.87;100.00;99732.39;1727947;82;21574;-90
2022/01/06 04:54:43;;;;;;;37.38;27.48;;;;;;;3.92;100.00;99736.78;1734623;82;20963;-91
2022/01/06 04:57:10;;;;;;;55.90;29.60;;;;;;;4.07;100.00;99727.30;1734690;82;20991;-86
2022/01/06 04:59:38;;;;;;;45.63;28.07;;;;;;;4.41;100.00;99710.53;1733465;82;21132;-89
2022/01/06 05:02:06;;;;;;;46.30;29.48;;;;;;;4.63;100.00;99723.80;1734212;82;21567;-88
2022/01/06 05:04:34;;;;;;;40.33;30.80;;;;;;;4.62;100.00;99719.56;1734324;82;21026;-89
2022/01/06 05:07:01;;;;;;;46.15;31.07;;;;;;;4.55;100.00;99719.13;1712914;82;21101;-89
2022/01/06 05:09:28;;;;;;;51.60;32.83;;;;;;;4.48;100.00;99735.47;1738396;82;22554;-88
2022/01/06 05:11:55;;;;;;;52.08;33.42;;;;;;;4.46;100.00;99727.44;1733932;82;21214;-88
2022/01/06 05:14:22;;;;;;;48.75;33.73;;;;;;;4.57;100.00;99727.59;1708456;82;20999;-89
2022/01/06 05:16:49;;;;;;;42.95;31.60;;;;;;;4.84;100.00;99730.13;1701825;83;21594;-88
2022/01/06 05:19:16;;;;;;;43.00;29.80;;;;;;;4.78;100.00;99728.41;1702003;84;21061;-89
2022/01/06 05:21:44;;;;;;;39.00;28.15;;;;;;;4.64;100.00;99731.43;1708839;83;21632;-89
2022/01/06 05:24:14;;;;;;;44.75;31.27;;;;;;;4.51;100.00;99742.17;1709409;83;21160;-88
2022/01/06 05:26:41;;;;;;;39.67;30.15;;;;;;;4.44;100.00;99756.38;1676358;83;21171;-88
2022/01/06 05:29:10;;;;;;;39.83;28.52;;;;;;;4.38;100.00;99757.59;1660113;85;21113;-88
2022/01/06 05:31:37;;;;;;;42.10;28.12;;;;;;;4.33;100.00;99746.28;1709766;83;21043;-88
2022/01/06 05:34:05;;;;;;;40.23;28.80;;;;;;;4.29;100.00;99746.56;1677484;85;21294;-90
2022/01/06 05:36:33;;;;;;;39.35;28.02;;;;;;;4.23;100.00;99734.87;1677314;84;21944;-89
2022/01/06 05:39:01;;;;;;;37.28;27.67;;;;;;;4.17;100.00;99739.95;1681332;84;21086;-89
2022/01/06 05:41:28;;;;;;;41.05;29.77;;;;;;;4.15;100.00;99759.02;1678973;84;21406;-88
2022/01/06 05:43:55;;;;;;;45.33;32.48;;;;;;;4.09;100.00;99773.09;1708849;83;21319;-88
2022/01/06 05:46:22;;;;;;;52.30;35.45;;;;;;;4.07;100.00;99789.95;1709246;84;21065;-88
2022/01/06 05:48:49;;;;;;;52.38;38.15;;;;;;;4.06;100.00;99793.44;1696083;82;21134;-88
2022/01/06 05:51:16;;;;;;;58.08;38.53;;;;;;;4.07;100.00;99800.25;1675869;85;21053;-88
2022/01/06 05:53:43;;;;;;;56.18;39.18;;;;;;;4.09;100.00;99793.70;1675663;85;21061;-88
2022/01/06 05:56:10;;;;;;;59.20;38.50;;;;;;;4.08;100.00;99791.61;1675740;85;21102;-88
2022/01/06 05:58:40;;;;;;;54.23;39.25;;;;;;;4.07;100.00;99795.09;1675539;85;21114;-88
2022/01/06 06:01:07;;;;;;;62.90;37.42;;;;;;;4.07;100.00;99797.67;1675936;85;21135;-89
2022/01/06 06:03:35;;;;;;;52.58;36.33;;;;;;;4.07;100.00;99800.25;1676165;85;21065;-90
2022/01/06 06:06:03;;;;;;;50.48;34.63;;;;;;;4.05;100.00;99797.41;1656000;85;21053;-90
2022/01/06 06:08:31;;;;;;;55.08;38.50;;;;;;;4.04;100.00;99791.44;1677500;85;21058;-89
2022/01/06 06:10:59;;;;;;;56.80;38.83;;;;;;;4.02;100.00;99797.14;1667929;83;21077;-88
2022/01/06 06:13:26;;;;;;;62.85;38.88;;;;;;;4.02;100.00;99802.30;1682323;83;21626;-86
2022/01/06 06:15:54;;;;;;;82.57;40.00;;;;;;;3.99;100.00;99808.09;1650900;84;21087;-91
2022/01/06 06:18:22;;;;;;;67.42;42.58;;;;;;;4.01;100.00;99808.36;1676746;85;21688;-90
2022/01/06 06:20:50;;;;;;;66.62;41.28;;;;;;;4.28;100.00;99806.77;1675672;85;21063;-89
2022/01/06 06:23:17;;;;;;;64.17;40.60;;;;;;;4.39;100.00;99811.62;1677251;85;21079;-90
2022/01/06 06:25:45;;;;;;;62.85;39.60;;;;;;;4.46;100.00;99815.09;1677437;85;21144;-89
2022/01/06 06:28:12;;;;;;;55.83;36.42;;;;;;;4.49;100.00;99811.86;1677097;85;21719;-89
2022/01/06 06:30:39;;;;;;;56.15;35.65;;;;;;;4.52;100.00;99805.71;1677723;85;21059;-89
2022/01/06 06:33:06;;;;;;;53.13;34.48;;;;;;;4.52;100.00;99812.16;1676674;85;21065;-89
2022/01/06 06:35:33;;;;;;;52.08;36.42;;;;;;;4.55;100.00;99811.95;1722425;82;21073;-87
2022/01/06 06:38:00;;;;;;;49.77;35.40;;;;;;;4.60;100.00;99811.22;1696039;82;21152;-87
2022/01/06 06:40:27;;;;;;;47.48;33.38;;;;;;;4.61;100.00;99815.42;1662453;84;21617;-89
2022/01/06 06:42:56;;;;;;;50.05;35.17;;;;;;;4.62;100.00;99811.92;1673149;84;21066;-90
2022/01/06 06:45:23;;;;;;;48.78;30.27;;;;;;;4.65;100.00;99809.16;1686454;83;21493;-89
2022/01/06 06:47:51;;;;;;;43.02;29.67;;;;;;;4.66;100.00;99809.98;1705223;83;21046;-89
2022/01/06 06:50:21;;;;;;;45.85;30.57;;;;;;;4.69;100.00;99803.34;1709693;83;21150;-88
2022/01/06 06:52:50;;;;;;;43.25;29.45;;;;;;;4.71;100.00;99802.32;1709617;83;21110;-89
2022/01/06 06:55:17;;;;;;;39.55;28.60;;;;;;;4.73;100.00;99808.66;1709799;83;21039;-88
2022/01/06 06:57:44;;;;;;;38.98;26.12;;;;;;;4.69;100.00;99817.53;1709756;83;21000;-89
2022/01/06 07:00:12;;;;;;;41.25;27.15;;;;;;;4.64;100.00;99811.37;1709850;83;21024;-89
2022/01/06 07:02:39;;;;;;;41.95;26.77;;;;;;;4.60;100.00;99804.77;1679706;85;21866;-89
2022/01/06 07:05:08;;;;;;;36.28;25.35;;;;;;;4.55;100.00;99812.79;1679987;85;21515;-89
2022/01/06 07:07:35;;;;;;;40.98;28.27;;;;;;;4.56;100.00;99813.61;1704197;82;21043;-89
2022/01/06 07:10:05;;;;;;;40.05;26.68;;;;;;;4.62;100.00;99815.79;1688884;83;21003;-88
2022/01/06 07:12:41;;;;;;;38.25;26.90;;;;;;;4.64;100.00;99815.24;1705889;83;21029;-88
2022/01/06 07:15:13;;;;;;;39.00;25.92;;;;;;;4.63;100.00;99814.05;1705978;82;21163;-88
2022/01/06 07:17:42;;;;;;;36.05;25.48;;;;;;;4.59;100.00;99822.45;1734797;81;21566;-88
2022/01/06 07:20:12;;;;;;;37.88;26.85;;;;;;;4.59;100.00;99821.16;1742020;82;21505;-88
2022/01/06 07:22:39;;;;;;;37.60;26.23;;;;;;;4.55;100.00;99811.95;1670474;82;21039;-88
2022/01/06 07:25:08;;;;;;;36.53;26.07;;;;;;;4.55;100.00;99813.23;1714888;81;21623;-89
2022/01/06 07:27:37;;;;;;;39.88;26.80;;;;;;;4.57;100.00;99798.50;1684016;83;21120;-89
2022/01/06 07:30:09;;;;;;;36.63;26.52;;;;;;;4.61;100.00;99793.98;1686804;83;21109;-89
2022/01/06 07:32:47;;;;;;;37.93;26.55;;;;;;;4.58;100.00;99798.40;1688547;82;21054;-87
2022/01/06 07:35:18;;;;;;;35.88;25.45;;;;;;;4.59;100.00;99814.71;1664348;83;21865;-89
2022/01/06 07:37:48;;;;;;;42.43;28.47;;;;;;;4.63;100.00;99816.64;1702015;82;21108;-90
2022/01/06 07:40:18;;;;;;;41.77;28.12;;;;;;;4.64;100.00;99828.61;1713287;82;21339;-90
2022/01/06 07:42:51;;;;;;;40.15;27.27;;;;;;;4.62;100.00;99826.11;1677161;83;21089;-89
2022/01/06 07:45:22;;;;;;;44.58;28.98;;;;;;;4.65;100.00;99837.98;1648805;85;21062;-89
2022/01/06 07:47:56;;;;;;;43.58;27.42;;;;;;;4.66;100.00;99851.23;1671608;85;21097;-89
2022/01/06 07:50:32;;;;;;;44.15;29.75;;;;;;;4.63;100.00;99848.40;1670285;84;21142;-90
2022/01/06 07:53:01;;;;;;;43.40;29.07;;;;;;;4.63;100.00;99843.72;1649035;85;21173;-90
2022/01/06 07:55:31;;;;;;;42.17;30.75;;;;;;;4.67;100.00;99848.59;1658330;84;21098;-90
2022/01/06 07:58:03;;;;;;;39.98;28.38;;;;;;;4.67;100.00;99845.16;1696021;83;21624;-89
2022/01/06 08:00:34;;;;;;;42.75;29.98;;;;;;;4.68;100.00;99846.38;1669843;84;21566;-90
2022/01/06 08:03:03;;;;;;;40.23;29.63;;;;;;;4.69;100.00;99848.00;1679968;84;21089;-90
2022/01/06 08:05:30;;;;;;;45.15;30.45;;;;;;;4.70;100.00;99834.19;1682358;84;21167;-89
2022/01/06 08:07:58;;;;;;;43.33;28.47;;;;;;;4.71;100.00;99827.30;1682635;84;21057;-89
2022/01/06 08:10:28;;;;;;;46.92;31.60;;;;;;;4.68;100.00;99836.50;1645667;86;20967;-89
2022/01/06 08:12:56;;;;;;;44.83;29.45;;;;;;;4.68;100.00;99827.48;1659667;83;21051;-89
2022/01/06 08:15:26;;;;;;;42.88;28.73;;;;;;;4.62;100.00;99809.34;1681343;84;21097;-89
2022/01/06 08:17:54;;;;;;;40.17;28.20;;;;;;;4.57;100.00;99815.27;1675983;84;22072;-88
2022/01/06 08:20:24;;;;;;;42.85;28.38;;;;;;;4.52;100.00;99809.58;1675537;84;21241;-88
2022/01/06 08:22:54;;;;;;;42.60;29.20;;;;;;;4.49;100.00;99808.47;1675670;85;21108;-88
2022/01/06 08:25:23;;;;;;;38.98;29.00;;;;;;;4.47;100.00;99811.16;1675055;85;21577;-89
2022/01/06 08:27:51;;;;;;;43.63;29.45;;;;;;;4.46;100.00;99814.66;1675951;85;21051;-89
2022/01/06 08:30:19;;;;;;;44.95;31.90;;;;;;;4.47;100.00;99830.49;1683235;83;21867;-89
2022/01/06 08:32:48;;;;;;;42.25;30.92;;;;;;;4.52;100.00;99846.48;1641756;84;21159;-89
2022/01/06 08:35:16;;;;;;;47.90;31.37;;;;;;;4.57;100.00;99846.20;1628605;85;21115;-88
2022/01/06 08:37:46;;;;;;;47.53;31.97;;;;;;;4.60;100.00;99849.05;1640690;85;21742;-87
2022/01/06 08:40:16;;;;;;;54.70;32.05;;;;;;;4.62;100.00;99855.77;1640006;85;21093;-90
2022/01/06 08:42:46;;;;;;;50.80;34.08;;;;;;;4.63;100.00;99853.55;1676579;84;21496;-90
2022/01/06 08:45:18;;;;;;;53.05;32.93;;;;;;;4.68;100.00;99852.83;1733582;81;21042;-89
2022/01/06 08:47:47;;;;;;;50.03;30.43;;;;;;;4.70;100.00;99852.24;1714741;82;21101;-89
2022/01/06 08:50:19;;;;;;;48.55;29.80;;;;;;;4.70;100.00;99854.83;1664198;84;21112;-89
2022/01/06 08:52:50;;;;;;;52.30;31.10;;;;;;;4.73;100.00;99859.80;1700644;82;21074;-88
2022/01/06 08:55:18;;;;;;;44.58;30.23;;;;;;;4.70;100.00;99844.51;1702123;83;21118;-88
2022/01/06 08:57:46;;;;;;;46.63;29.42;;;;;;;4.69;100.00;99838.16;1682432;83;21002;-89
2022/01/06 09:00:20;;;;;;;50.45;32.17;;;;;;;4.67;100.00;99842.58;1722935;82;21042;-88
2022/01/06 09:02:46;;;;;;;55.15;31.12;;;;;;;4.64;100.00;99840.22;1675390;84;21018;-89
2022/01/06 09:05:14;;;;;;;58.20;31.15;;;;;;;4.60;100.00;99837.00;1713262;82;21079;-89
2022/01/06 09:07:42;;;;;;;58.45;33.42;;;;;;;4.60;100.00;99841.31;1702798;83;21128;-89
2022/01/06 09:10:10;;;;;;;59.27;32.67;;;;;;;4.63;100.00;99845.81;1725584;83;21024;-89
2022/01/06 09:12:39;;;;;;;56.48;34.95;;;;;;;4.65;100.00;99853.00;1703037;83;21103;-90
2022/01/06 09:15:09;;;;;;;53.92;34.27;;;;;;;4.67;100.00;99857.61;1691534;82;21111;-88
2022/01/06 09:17:39;;;;;;;57.27;34.90;;;;;;;4.70;100.00;99859.16;1690831;83;21042;-90
2022/01/06 09:20:08;;;;;;;52.58;32.78;;;;;;;4.73;100.00;99863.67;1717139;82;21096;-89
2022/01/06 09:22:36;;;;;;;55.43;35.08;;;;;;;4.76;100.00;99869.56;1716755;82;21089;-88
2022/01/06 09:25:04;;;;;;;59.53;37.40;;;;;;;4.79;100.00;99866.33;1731308;81;21112;-88
2022/01/06 09:27:34;;;;;;;55.67;36.40;;;;;;;4.80;100.00;99865.41;1738392;81;21698;-88
2022/01/06 09:30:03;;;;;;;57.08;33.98;;;;;;;4.82;100.00;99870.47;1722014;82;21540;-88
2022/01/06 09:32:31;;;;;;;57.03;37.40;;;;;;;4.82;100.00;99874.34;1716006;82;21534;-88
2022/01/06 09:35:00;;;;;;;58.50;36.95;;;;;;;4.84;100.00;99868.62;1710684;82;21015;-88
2022/01/06 09:37:28;;;;;;;56.42;36.98;;;;;;;4.87;100.00;99863.25;1737629;82;21117;-89
2022/01/06 09:39:55;;;;;;;58.05;36.77;;;;;;;4.88;100.00;99855.44;1738202;82;21054;-88
2022/01/06 09:42:22;;;;;;;53.75;35.60;;;;;;;4.89;100.00;99854.48;1723434;82;21527;-88
2022/01/06 09:44:51;;;;;;;60.12;38.08;;;;;;;4.92;100.00;99857.36;1746044;81;21161;-88
2022/01/06 09:47:19;;;;;;;61.35;38.35;;;;;;;4.96;100.00;99865.25;1723973;82;21043;-88
2022/01/06 09:49:49;;;;;;;59.75;40.28;;;;;;;4.99;100.00;99857.77;1690251;84;21547;-87
2022/01/06 09:52:19;;;;;;;65.57;39.92;;;;;;;5.03;100.00;99866.98;1673840;83;21257;-88
2022/01/06 09:54:46;;;;;;;72.40;42.03;;;;;;;5.01;100.00;99859.33;1737375;82;21640;-87
2022/01/06 09:57:14;;;;;;;69.37;42.35;;;;;;;5.02;100.00;99862.27;1725329;81;21917;-88
2022/01/06 09:59:44;;;;;;;71.05;44.25;;;;;;;5.02;100.00;99876.47;1725063;83;21078;-88
2022/01/06 10:02:18;;;;;;;66.35;40.90;;;;;;;4.97;100.00;99864.78;1725334;83;21955;-87
2022/01/06 10:04:48;;;;;;;70.57;43.10;;;;;;;4.96;100.00;99869.13;1701032;83;21105;-87
2022/01/06 10:07:16;;;;;;;72.72;43.65;;;;;;;5.00;100.00;99871.05;1721473;82;21164;-88
2022/01/06 10:09:43;;;;;;;67.92;41.80;;;;;;;5.01;100.00;99869.65;1728706;81;21148;-87
2022/01/06 10:12:13;;;;;;;66.28;40.48;;;;;;;5.00;100.00;99858.14;1737322;81;21093;-87
2022/01/06 10:14:44;;;;;;;75.65;44.20;;;;;;;5.01;100.00;99850.30;1735576;81;21108;-88
2022/01/06 10:17:17;;;;;;;73.78;45.35;;;;;;;5.03;100.00;99841.19;1683120;83;21183;-87
2022/01/06 10:19:48;;;;;;;71.07;42.58;;;;;;;5.04;100.00;99841.55;1721946;82;21097;-87
2022/01/06 10:22:20;;;;;;;76.42;43.87;;;;;;;5.05;100.00;99844.47;1721174;82;21116;-87
2022/01/06 10:24:50;;;;;;;75.10;43.58;;;;;;;5.04;100.00;99841.55;1721279;83;21508;-87
2022/01/06 10:27:21;;;;;;;73.90;42.85;;;;;;;5.07;100.00;99825.04;1723837;82;21068;-86
2022/01/06 10:29:51;;;;;;;69.10;42.88;;;;;;;5.10;100.00;99841.16;1718041;82;21049;-88
2022/01/06 10:32:23;;;;;;;66.80;41.92;;;;;;;5.14;100.00;99830.16;1709502;82;21556;-88
2022/01/06 10:34:56;;;;;;;72.60;40.23;;;;;;;5.15;100.00;99830.53;1714673;81;21136;-90
2022/01/06 10:37:27;;;;;;;96.47;41.28;;;;;;;5.18;100.00;99821.28;1725296;81;21041;-88
2022/01/06 10:40:04;;;;;;;85.62;44.15;;;;;;;5.31;100.00;99828.61;1697282;82;21093;-88
2022/01/06 10:42:34;;;;;;;77.70;42.05;;;;;;;5.35;100.00;99834.39;1718131;82;21067;-90
2022/01/06 10:45:13;;;;;;;79.42;42.45;;;;;;;5.35;100.00;99837.79;1710451;81;21596;-89
2022/01/06 10:47:49;;;;;;;64.82;41.30;;;;;;;5.33;100.00;99834.47;1696519;82;21167;-87
2022/01/06 10:50:35;;;;;;;72.50;43.08;;;;;;;5.35;100.00;99834.39;1702328;82;21502;-90
2022/01/06 10:53:10;;;;;;;75.47;43.20;;;;;;;5.37;100.00;99832.07;1694765;83;21484;-87
2022/01/06 10:55:42;;;;;;;75.85;43.70;;;;;;;5.35;100.00;99831.33;1665896;83;21073;-89
2022/01/06 10:58:23;;;;;;;;;;;;;;;5.33;100.00;99830.59;1695751;83;21397;-88
2022/01/06 11:01:02;;;;;;;67.55;39.63;;;;;;;5.31;100.00;99842.80;1664785;84;21036;-89
2022/01/06 11:03:36;;;;;;;69.45;40.98;;;;;;;5.32;100.00;99850.08;1645442;85;21561;-89
2022/01/06 11:06:06;;;;;;;63.55;39.50;;;;;;;5.35;100.00;99842.14;1665894;83;21048;-90
2022/01/06 11:08:39;;;;;;;71.82;41.25;;;;;;;5.43;100.00;99846.34;1699350;82;21055;-90
2022/01/06 11:13:39;;;;;;;71.82;38.78;;;;;;;5.80;100.00;99852.09;1706414;82;21544;-90
2022/01/06 11:16:09;;;;;;;57.30;37.38;;;;;;;5.84;100.00;99849.20;1674549;84;21056;-91
2022/01/06 11:18:54;;;;;;;70.17;39.70;;;;;;;5.93;100.00;99850.33;1682163;83;21129;-90
2022/01/06 11:21:29;;;;;;;63.52;37.75;;;;;;;5.96;100.00;99850.58;1705025;82;21525;-90
2022/01/06 11:24:16;;;;;;;58.02;36.05;;;;;;;6.04;100.00;99862.55;1692627;83;21110;-91
2022/01/06 11:27:03;;;;;;;61.80;38.40;;;;;;;5.91;100.00;99865.10;1689357;83;21278;-91
2022/01/06 11:29:40;;;;;;;66.05;40.10;;;;;;;5.66;100.00;99869.81;1671250;83;21051;-90
2022/01/06 11:32:24;;;;;;;65.37;40.10;;;;;;;5.49;100.00;99868.32;1626447;85;21053;-90
2022/01/06 11:35:11;;;;;;;71.62;40.43;;;;;;;5.29;100.00;99872.23;1673036;83;21167;-90
2022/01/06 11:37:56;;;;;;;67.95;39.40;;;;;;;5.19;100.00;99870.24;1700831;83;21115;-90